Knox City, Texas
Current Conditions -  °F | °C
As of 5:16 AM on Monday 20 Oct 2014 (Local Time) from KF05 Reporting Station
Scattered Clouds Scattered Clouds  
Wind Chill: 61°   Ceiling: Unl
Heat Index: 61°   Visibility: 7mi
Dew Point: 57°   Wind: 6mph
Humidity: 88%   Direction: 150°SSE
Pressure: 30.05"   Gusts: NA
Location:  33.42°N, 99.82°W
Report Text: KF05 201016Z AUTO 15005KT 7SM SCT080 16/14 A3005 RMK AO2
Loading
Personal Weather Stations






























Interactive Weather Map
Tropical Storm Tracking
New forecast layout! Learn more

10-Day Weather Forecast

Advertisements
Track Severe Weather on mobile